createdAt,value
2022-11-10T00:03:03.409Z,14.25
2022-11-10T00:05:52.590Z,15.65
2022-11-10T00:08:40.454Z,13.90
2022-11-10T00:11:28.045Z,16.50
2022-11-10T00:14:33.285Z,13.98
2022-11-10T00:17:20.970Z,13.00
2022-11-10T00:20:10.246Z,14.43
2022-11-10T00:22:59.466Z,11.60
2022-11-10T00:28:34.747Z,10.55
2022-11-10T00:31:22.395Z,14.18
2022-11-10T00:34:15.324Z,12.43
2022-11-10T00:37:03.032Z,13.52
2022-11-10T00:39:52.226Z,10.82
2022-11-10T00:42:40.083Z,14.07
2022-11-10T00:45:27.646Z,12.73
2022-11-10T00:48:15.521Z,13.40
2022-11-10T00:51:03.312Z,12.30
2022-11-10T00:53:51.332Z,11.45
2022-11-10T00:56:40.300Z,13.18
2022-11-10T00:59:28.444Z,12.55
2022-11-10T01:02:16.464Z,11.48
2022-11-10T01:05:04.518Z,11.48
2022-11-10T01:07:52.583Z,12.57
2022-11-10T01:10:40.684Z,13.57
2022-11-10T01:13:29.640Z,11.80
2022-11-10T01:16:21.591Z,11.60
2022-11-10T01:19:09.422Z,13.23
2022-11-10T01:21:57.277Z,12.27
2022-11-10T01:24:45.024Z,12.48
2022-11-10T01:27:33.130Z,12.32
2022-11-10T01:30:22.147Z,11.85
2022-11-10T01:33:10.226Z,13.70
2022-11-10T01:35:58.433Z,10.20
2022-11-10T01:38:46.754Z,11.75
2022-11-10T01:41:34.347Z,11.50
2022-11-10T01:44:24.436Z,12.10
2022-11-10T01:47:13.363Z,12.10
2022-11-10T01:50:01.693Z,11.43
2022-11-10T01:52:53.376Z,10.40
2022-11-10T01:55:44.895Z,12.70
2022-11-10T01:58:39.938Z,11.43
2022-11-10T02:01:28.469Z,10.77
2022-11-10T02:04:20.492Z,10.48
2022-11-10T02:07:10.156Z,10.48
2022-11-10T02:09:57.948Z,8.98
2022-11-10T02:12:47.085Z,7.03
2022-11-10T02:15:34.636Z,11.35
2022-11-10T02:18:22.551Z,9.90
2022-11-10T02:21:11.954Z,8.95
2022-11-10T02:23:59.745Z,8.68
2022-11-10T02:26:51.215Z,10.05
2022-11-10T02:29:38.995Z,12.10
2022-11-10T02:32:26.507Z,9.95
2022-11-10T02:35:14.109Z,8.30
2022-11-10T02:38:03.295Z,9.77
2022-11-10T02:40:51.479Z,9.70
2022-11-10T02:43:39.663Z,9.40
2022-11-10T02:46:28.197Z,9.82
2022-11-10T02:49:16.045Z,10.25
2022-11-10T02:52:04.123Z,10.43
2022-11-10T02:54:53.218Z,10.27
2022-11-10T03:00:29.993Z,7.93
2022-11-10T03:03:18.251Z,9.35
2022-11-10T03:06:05.998Z,9.63
2022-11-10T03:08:54.215Z,9.43
2022-11-10T03:11:43.015Z,10.73
2022-11-10T03:14:30.705Z,9.48
2022-11-10T03:17:18.455Z,9.70
2022-11-10T03:20:07.065Z,10.48
2022-11-10T03:22:54.886Z,8.38
2022-11-10T03:25:42.936Z,10.05
2022-11-10T03:28:32.331Z,10.65
2022-11-10T03:31:20.543Z,10.55
2022-11-10T03:34:08.283Z,11.82
2022-11-10T03:36:56.425Z,11.00
2022-11-10T03:39:44.257Z,10.18
2022-11-10T03:42:32.109Z,10.18
2022-11-10T03:45:21.445Z,11.40
2022-11-10T03:48:09.812Z,10.57
2022-11-10T03:50:57.452Z,10.45
2022-11-10T03:53:45.477Z,11.20
2022-11-10T03:56:33.315Z,11.15
2022-11-10T03:59:21.303Z,10.32
2022-11-10T04:02:10.828Z,9.15
2022-11-10T04:05:16.105Z,10.18
2022-11-10T04:08:21.543Z,9.60
2022-11-10T04:11:09.414Z,10.50
2022-11-10T04:14:23.197Z,10.32
2022-11-10T04:17:12.298Z,11.18
2022-11-10T04:20:00.414Z,10.48
2022-11-10T04:23:06.234Z,8.50
2022-11-10T04:26:07.839Z,9.60
2022-11-10T04:28:57.983Z,12.23
2022-11-10T04:31:45.789Z,8.60
2022-11-10T04:34:34.987Z,10.05
2022-11-10T04:37:22.564Z,9.10
2022-11-10T04:40:11.597Z,8.95
2022-11-10T04:42:59.417Z,11.30
2022-11-10T04:45:47.377Z,7.45
2022-11-10T04:48:36.102Z,9.63
2022-11-10T04:51:28.275Z,11.20
2022-11-10T04:54:16.198Z,10.23
2022-11-10T04:57:04.476Z,9.57
2022-11-10T04:59:51.979Z,11.15
2022-11-10T05:02:40.026Z,9.88
2022-11-10T05:05:27.896Z,11.23
2022-11-10T05:08:17.431Z,10.02
2022-11-10T05:11:05.453Z,10.25
2022-11-10T05:13:53.821Z,11.90
2022-11-10T05:16:41.887Z,9.07
2022-11-10T05:19:29.981Z,9.40
2022-11-10T05:22:17.831Z,9.65
2022-11-10T05:25:08.639Z,9.85
2022-11-10T05:27:56.495Z,9.25
2022-11-10T05:30:45.053Z,9.48
2022-11-10T05:33:33.930Z,10.02
2022-11-10T05:36:21.887Z,9.48
2022-11-10T05:39:09.679Z,9.25
2022-11-10T05:41:59.392Z,8.57
2022-11-10T05:44:47.278Z,7.93
2022-11-10T05:47:37.970Z,9.07
2022-11-10T05:50:26.557Z,8.10
2022-11-10T05:53:14.847Z,8.50
2022-11-10T05:56:02.355Z,8.27
2022-11-10T05:58:51.815Z,7.18
2022-11-10T06:01:39.565Z,10.10
2022-11-10T06:04:27.456Z,8.68
2022-11-10T06:07:15.362Z,8.63
2022-11-10T06:10:04.564Z,7.63
2022-11-10T06:12:52.783Z,8.63
2022-11-10T06:15:46.112Z,9.65
2022-11-10T06:18:37.127Z,9.50
2022-11-10T06:21:25.026Z,8.77
2022-11-10T06:24:13.044Z,9.13
2022-11-10T06:27:00.966Z,8.40
2022-11-10T06:29:49.093Z,9.80
2022-11-10T06:32:38.576Z,10.10
2022-11-10T06:35:27.004Z,10.13
2022-11-10T06:38:15.204Z,11.18
2022-11-10T06:41:02.926Z,10.93
2022-11-10T06:43:50.911Z,10.65
2022-11-10T06:46:42.215Z,8.73
2022-11-10T06:49:31.630Z,11.02
2022-11-10T06:52:19.218Z,12.32
2022-11-10T06:55:08.570Z,11.38
2022-11-10T06:57:56.271Z,11.48
2022-11-10T07:00:44.403Z,11.10
2022-11-10T07:03:31.830Z,9.88
2022-11-10T07:06:21.435Z,10.30
2022-11-10T07:09:09.353Z,10.70
2022-11-10T07:11:57.688Z,9.55
2022-11-10T07:14:45.354Z,9.68
2022-11-10T07:17:33.316Z,8.32
2022-11-10T07:20:20.966Z,10.18
2022-11-10T07:23:10.564Z,9.90
2022-11-10T07:28:47.565Z,6.90
2022-11-10T07:31:35.598Z,5.65
2022-11-10T07:34:23.606Z,8.10
2022-11-10T07:37:11.216Z,9.38
2022-11-10T07:40:00.522Z,8.43
2022-11-10T07:42:48.220Z,9.68
2022-11-10T07:45:36.487Z,8.50
2022-11-10T07:48:24.459Z,7.32
2022-11-10T07:51:12.648Z,8.55
2022-11-10T07:54:00.183Z,5.47
2022-11-10T07:56:49.802Z,6.05
2022-11-10T07:59:37.425Z,8.63
2022-11-10T08:02:25.481Z,5.57
2022-11-10T08:05:13.111Z,4.22
2022-11-10T08:08:01.663Z,7.35
2022-11-10T08:10:49.515Z,6.13
2022-11-10T08:13:39.448Z,5.72
2022-11-10T08:16:26.839Z,5.00
2022-11-10T08:19:14.940Z,5.50
2022-11-10T08:22:02.753Z,4.30
2022-11-10T08:24:50.687Z,4.20
2022-11-10T08:27:37.833Z,4.35
2022-11-10T08:30:27.537Z,3.53
2022-11-10T08:36:04.962Z,4.35
2022-11-10T08:38:52.777Z,5.30
2022-11-10T08:41:40.717Z,2.70
2022-11-10T08:44:27.986Z,4.82
2022-11-10T08:47:17.487Z,3.92
2022-11-10T08:50:05.274Z,3.35
2022-11-10T08:52:54.811Z,3.38
2022-11-10T08:55:43.028Z,3.38
2022-11-10T08:58:31.461Z,2.80
2022-11-10T09:01:19.026Z,4.55
2022-11-10T09:04:08.361Z,4.65
2022-11-10T09:06:57.886Z,3.30
2022-11-10T09:10:01.412Z,3.53
2022-11-10T09:12:54.633Z,3.53
2022-11-10T09:15:43.855Z,3.63
2022-11-10T09:18:32.224Z,3.58
2022-11-10T09:21:21.450Z,3.55
2022-11-10T09:24:09.473Z,4.57
2022-11-10T09:26:57.679Z,3.00
2022-11-10T09:29:45.432Z,3.63
2022-11-10T09:32:33.736Z,3.38
2022-11-10T09:35:21.310Z,3.45
2022-11-10T09:38:11.912Z,2.30
2022-11-10T09:41:03.453Z,3.45
2022-11-10T09:44:03.244Z,2.80
2022-11-10T09:46:55.580Z,3.13
2022-11-10T09:49:50.989Z,3.35
2022-11-10T09:52:40.612Z,3.05
2022-11-10T09:55:38.749Z,2.50
2022-11-10T09:58:33.254Z,2.33
2022-11-10T10:01:31.829Z,2.05
2022-11-10T10:04:40.268Z,2.53
2022-11-10T10:07:40.176Z,1.83
2022-11-10T10:10:39.055Z,2.08
2022-11-10T10:13:49.009Z,2.38
2022-11-10T10:16:45.320Z,2.15
2022-11-10T10:19:43.201Z,2.05
2022-11-10T10:22:55.725Z,2.08
2022-11-10T10:25:47.958Z,1.95
2022-11-10T10:28:39.425Z,2.25
2022-11-10T10:31:31.523Z,2.50
2022-11-10T10:34:22.654Z,1.10
2022-11-10T10:37:24.102Z,2.10
2022-11-10T10:40:16.811Z,1.52
2022-11-10T10:43:06.162Z,1.48
2022-11-10T10:46:07.466Z,1.40
2022-11-10T10:49:28.149Z,1.08
2022-11-10T10:52:20.876Z,1.75
2022-11-10T10:55:10.871Z,1.77
2022-11-10T10:58:01.743Z,1.48
2022-11-10T11:00:53.163Z,1.85
2022-11-10T11:03:44.392Z,1.85
2022-11-10T11:06:34.049Z,1.25
2022-11-10T11:09:25.836Z,1.40
2022-11-10T11:12:15.859Z,1.63
2022-11-10T11:15:22.374Z,1.50
2022-11-10T11:18:16.505Z,1.60
2022-11-10T11:21:15.330Z,1.27
2022-11-10T11:24:24.896Z,1.48
2022-11-10T11:27:19.938Z,1.52
2022-11-10T11:30:13.290Z,1.70
2022-11-10T11:33:24.554Z,1.75
2022-11-10T11:36:25.271Z,1.63
2022-11-10T11:39:27.198Z,1.90
2022-11-10T11:42:26.241Z,1.55
2022-11-10T11:45:21.741Z,1.23
2022-11-10T11:48:41.679Z,1.27
2022-11-10T11:51:37.370Z,11.25
2022-11-10T11:54:31.538Z,9.35
2022-11-10T11:57:38.666Z,2.60
2022-11-10T12:00:28.154Z,2.40
2022-11-10T12:03:48.867Z,1.60
2022-11-10T12:06:48.163Z,1.88
2022-11-10T12:13:01.050Z,1.45
2022-11-10T12:15:56.051Z,1.88
2022-11-10T12:18:53.516Z,1.63
2022-11-10T12:21:52.097Z,1.90
2022-11-10T12:24:52.312Z,3.22
2022-11-10T12:27:45.997Z,1.60
2022-11-10T12:30:36.835Z,1.95
2022-11-10T12:33:34.618Z,1.25
2022-11-10T12:36:25.398Z,1.83
2022-11-10T12:39:21.979Z,2.80
2022-11-10T12:42:15.962Z,2.40
2022-11-10T12:45:06.188Z,2.88
2022-11-10T12:47:56.236Z,1.70
2022-11-10T12:50:52.249Z,2.42
2022-11-10T12:53:42.845Z,1.48
2022-11-10T12:56:38.982Z,2.53
2022-11-10T12:59:37.485Z,3.28
2022-11-10T13:02:33.537Z,1.77
2022-11-10T13:05:33.667Z,1.70
2022-11-10T13:08:27.923Z,2.78
2022-11-10T13:11:29.011Z,1.90
2022-11-10T13:14:27.094Z,2.40
2022-11-10T13:18:00.256Z,1.92
2022-11-10T13:20:57.102Z,4.22
2022-11-10T13:24:23.227Z,3.13
2022-11-10T13:27:34.651Z,2.72
2022-11-10T13:30:39.880Z,2.53
2022-11-10T13:33:38.613Z,2.95
2022-11-10T13:36:40.151Z,2.65
2022-11-10T13:39:30.863Z,3.10
2022-11-10T13:42:23.400Z,3.50
2022-11-10T13:45:31.194Z,2.20
2022-11-10T13:48:33.940Z,1.90
2022-11-10T13:51:33.054Z,1.70
2022-11-10T13:54:47.749Z,2.55
2022-11-10T13:57:38.928Z,2.72
2022-11-10T14:00:29.448Z,2.95
2022-11-10T14:03:50.259Z,2.95
2022-11-10T14:06:46.544Z,2.45
2022-11-10T14:09:39.632Z,4.00
2022-11-10T14:12:34.592Z,2.50
2022-11-10T14:15:25.015Z,3.38
2022-11-10T14:18:19.993Z,3.00
2022-11-10T14:21:13.389Z,2.33
2022-11-10T14:24:11.964Z,2.60
2022-11-10T14:27:01.652Z,2.90
2022-11-10T14:29:49.408Z,2.95
2022-11-10T14:32:39.164Z,1.52
2022-11-10T14:35:30.266Z,3.33
2022-11-10T14:38:22.060Z,2.65
2022-11-10T14:41:19.908Z,2.53
2022-11-10T14:44:12.574Z,3.33
2022-11-10T14:47:16.299Z,3.15
2022-11-10T14:50:25.768Z,2.58
2022-11-10T14:53:20.485Z,3.20
2022-11-10T14:56:15.213Z,2.45
2022-11-10T14:59:06.750Z,2.85
2022-11-10T15:01:57.474Z,3.40
2022-11-10T15:04:46.993Z,3.28
2022-11-10T15:07:34.631Z,3.20
2022-11-10T15:10:24.683Z,2.63
2022-11-10T15:13:22.849Z,3.80
2022-11-10T15:16:26.626Z,3.60
2022-11-10T15:19:30.054Z,3.10
2022-11-10T15:22:21.224Z,3.42
2022-11-10T15:25:16.519Z,3.50
2022-11-10T15:28:07.578Z,2.97
2022-11-10T15:30:57.591Z,3.90
2022-11-10T15:33:51.049Z,3.45
2022-11-10T15:36:40.685Z,4.13
2022-11-10T15:42:18.236Z,4.97
2022-11-10T15:45:07.145Z,3.72
2022-11-10T15:47:56.192Z,4.22
2022-11-10T15:50:47.622Z,5.35
2022-11-10T15:53:38.543Z,4.85
2022-11-10T15:56:26.825Z,4.38
2022-11-10T15:59:14.295Z,5.57
2022-11-10T16:02:02.263Z,5.05
2022-11-10T16:04:58.609Z,4.70
2022-11-10T16:07:49.115Z,4.53
2022-11-10T16:10:36.688Z,6.03
2022-11-10T16:13:28.379Z,5.15
2022-11-10T16:16:19.219Z,4.47
2022-11-10T16:19:07.209Z,4.75
2022-11-10T16:21:55.306Z,5.47
2022-11-10T16:24:45.164Z,5.38
2022-11-10T16:27:32.936Z,4.90
2022-11-10T16:30:20.948Z,5.68
2022-11-10T16:33:13.637Z,5.00
2022-11-10T16:36:01.514Z,5.10
2022-11-10T16:38:49.075Z,5.65
2022-11-10T16:41:38.690Z,5.43
2022-11-10T16:44:26.460Z,5.88
2022-11-10T16:47:20.204Z,6.28
2022-11-10T16:50:25.080Z,6.47
2022-11-10T16:53:17.294Z,6.28
2022-11-10T16:56:05.306Z,6.40
2022-11-10T16:58:55.432Z,4.65
2022-11-10T17:04:33.980Z,4.60
2022-11-10T17:07:24.428Z,4.57
2022-11-10T17:10:16.914Z,6.45
2022-11-10T17:13:04.622Z,9.50
2022-11-10T17:15:56.847Z,12.05
2022-11-10T17:18:45.946Z,11.10
2022-11-10T17:21:36.957Z,8.35
2022-11-10T17:24:24.860Z,8.05
2022-11-10T17:27:12.762Z,7.13
2022-11-10T17:30:00.602Z,5.75
2022-11-10T17:33:06.061Z,8.13
2022-11-10T17:35:55.010Z,6.72
2022-11-10T17:38:43.618Z,7.18
2022-11-10T17:41:31.593Z,6.47
2022-11-10T17:44:20.904Z,7.40
2022-11-10T17:47:08.487Z,7.65
2022-11-10T17:49:57.793Z,5.90
2022-11-10T17:52:46.022Z,7.10
2022-11-10T17:55:34.571Z,8.05
2022-11-10T17:58:23.286Z,7.53
2022-11-10T18:01:16.643Z,12.13
2022-11-10T18:04:06.106Z,10.02
2022-11-10T18:06:56.712Z,11.50
2022-11-10T18:09:44.671Z,13.40
2022-11-10T18:12:32.569Z,12.77
2022-11-10T18:15:20.492Z,13.07
2022-11-10T18:18:11.270Z,12.35
2022-11-10T18:20:59.147Z,12.50
2022-11-10T18:23:48.684Z,12.98
2022-11-10T18:26:36.306Z,13.27
2022-11-10T18:29:24.159Z,12.13
2022-11-10T18:32:12.058Z,15.98
2022-11-10T18:35:00.074Z,22.95
2022-11-10T18:37:47.874Z,21.83
2022-11-10T18:40:37.501Z,19.08
2022-11-10T18:43:25.286Z,18.20
2022-11-10T18:46:13.449Z,17.45
2022-11-10T18:49:01.993Z,14.15
2022-11-10T18:51:50.058Z,10.43
2022-11-10T18:54:37.678Z,11.38
2022-11-10T18:57:27.143Z,10.70
2022-11-10T19:00:15.911Z,12.15
2022-11-10T19:03:04.242Z,13.68
2022-11-10T19:05:58.313Z,14.10
2022-11-10T19:08:46.813Z,13.57
2022-11-10T19:11:35.413Z,8.65
2022-11-10T19:14:26.140Z,8.52
2022-11-10T19:17:13.687Z,7.50
2022-11-10T19:20:06.790Z,8.02
2022-11-10T19:22:56.727Z,8.27
2022-11-10T19:25:44.864Z,8.65
2022-11-10T19:28:32.962Z,9.65
2022-11-10T19:31:23.063Z,9.07
2022-11-10T19:34:10.804Z,10.07
2022-11-10T19:36:58.727Z,12.73
2022-11-10T19:39:46.533Z,10.32
2022-11-10T19:42:35.530Z,12.20
2022-11-10T19:45:23.103Z,11.57
2022-11-10T19:48:12.991Z,10.23
2022-11-10T19:51:02.093Z,11.35
2022-11-10T19:53:56.478Z,11.07
2022-11-10T19:56:44.141Z,9.82
2022-11-10T19:59:32.838Z,9.85
2022-11-10T20:02:23.146Z,11.20
2022-11-10T20:05:16.970Z,11.02
2022-11-10T20:08:12.980Z,12.77
2022-11-10T20:11:03.325Z,13.00
2022-11-10T20:13:54.725Z,11.93
2022-11-10T20:16:43.367Z,11.23
2022-11-10T20:19:33.677Z,11.50
2022-11-10T20:22:25.540Z,11.10
2022-11-10T20:25:13.495Z,9.20
2022-11-10T20:28:03.555Z,10.35
2022-11-10T20:30:51.135Z,11.20
2022-11-10T20:33:39.392Z,9.15
2022-11-10T20:36:28.547Z,11.18
2022-11-10T20:39:18.057Z,10.02
2022-11-10T20:42:10.323Z,10.15
2022-11-10T20:45:00.894Z,9.57
2022-11-10T20:47:48.855Z,11.23
2022-11-10T20:50:39.773Z,10.15
2022-11-10T20:53:29.361Z,9.95
2022-11-10T20:59:06.832Z,9.90
2022-11-10T21:01:55.089Z,9.82
2022-11-10T21:04:43.295Z,10.05
2022-11-10T21:07:31.232Z,8.40
2022-11-10T21:10:19.064Z,9.93
2022-11-10T21:13:09.682Z,10.27
2022-11-10T21:15:59.947Z,10.70
2022-11-10T21:18:48.428Z,10.52
2022-11-10T21:21:36.198Z,12.35
2022-11-10T21:24:24.044Z,13.18
2022-11-10T21:27:12.762Z,10.07
2022-11-10T21:30:02.542Z,10.77
2022-11-10T21:32:52.725Z,10.30
2022-11-10T21:35:41.180Z,12.32
2022-11-10T21:38:28.658Z,9.93
2022-11-10T21:41:17.071Z,11.43
2022-11-10T21:44:04.563Z,10.32
2022-11-10T21:46:53.636Z,9.60
2022-11-10T21:49:41.436Z,11.02
2022-11-10T21:52:33.513Z,9.70
2022-11-10T21:55:22.182Z,9.82
2022-11-10T21:58:12.395Z,11.02
2022-11-10T22:01:03.173Z,8.48
2022-11-10T22:03:53.134Z,10.27
2022-11-10T22:06:58.051Z,9.90
2022-11-10T22:10:04.901Z,9.05
2022-11-10T22:13:25.329Z,9.55
2022-11-10T22:16:40.105Z,9.77
2022-11-10T22:19:29.463Z,7.72
2022-11-10T22:22:17.578Z,8.43
2022-11-10T22:25:05.535Z,9.00
2022-11-10T22:27:54.259Z,9.15
2022-11-10T22:30:42.076Z,9.48
2022-11-10T22:33:30.831Z,8.20
2022-11-10T22:36:21.744Z,9.23
2022-11-10T22:39:10.311Z,8.35
2022-11-10T22:42:15.540Z,8.27
2022-11-10T22:45:05.606Z,8.57
2022-11-10T22:48:12.961Z,8.68
2022-11-10T22:51:02.001Z,7.93
2022-11-10T22:53:51.436Z,9.18
2022-11-10T22:59:27.571Z,7.45
2022-11-10T23:02:15.789Z,6.88
2022-11-10T23:05:03.257Z,9.60
2022-11-10T23:07:52.679Z,8.43
2022-11-10T23:10:41.788Z,8.15
2022-11-10T23:16:19.876Z,8.02
2022-11-10T23:19:07.931Z,8.68
2022-11-10T23:21:55.897Z,9.23
2022-11-10T23:24:43.849Z,9.30
2022-11-10T23:27:34.525Z,10.13
2022-11-10T23:30:24.373Z,9.13
2022-11-10T23:36:00.577Z,8.27
2022-11-10T23:38:49.877Z,8.48
2022-11-10T23:44:29.359Z,7.93
2022-11-10T23:47:17.601Z,8.85
2022-11-10T23:50:05.871Z,9.52
2022-11-10T23:52:54.022Z,9.32
2022-11-10T23:55:42.205Z,8.95
2022-11-10T23:58:30.842Z,9.02
